Tafton, Pennsylvania
Current Conditions -  °F | °C
As of 12:53 PM on Friday 21 Nov 2014 (Local Time) from KMPO Reporting Station
Few Clouds Few Clouds  
Wind Chill: 13°   Ceiling: Unl
Heat Index: 25°   Visibility: 10mi
Dew Point:   Wind: 15mph
Humidity: 46%   Direction: 300°WNW
Pressure: 30.22"   Gusts: 24mph
Location:  41.4°N, 75.18°W
Report Text: KMPO 211753Z AUTO 30013G21KT 10SM FEW044 M04/M14 A3022 RMK AO2 PK WND 32030/1655 SLP263 T10391139 11033 21078 51009
Loading
Personal Weather Stations






























Interactive Weather Map New forecast layout! Learn more

10-Day Weather Forecast

Advertisements
Track Severe Weather on mobile